KCNK/CNK METAR and TAF weather

Enter ICAO airport designator
Station Type Date Time Source
KCNK METAR 2021/04/18 00:55 UTC NOAA

KCNK 180055Z AUTO 33005KT 10SM CLR 09/03 A3011 RMK AO2 SLP201 T00940028


Station Type Date Time Source
KCNK Decoded METAR 2021/04/18 00:55 UTC NOAA

Concordia, Blosser Municipal Airport, KS, United States (KCNK) 39-33-05N 097-39-02W 447M
Apr 17, 2021 - 08:55 PM EDT / 2021.04.18 0055 UTC
Wind: from the NNW (330 degrees) at 6 MPH (5 KT):0
Visibility: 10 mile(s):0
Sky conditions: clear
Temperature: 48.9 F (9.4 C)
Dew Point: 37.0 F (2.8 C)
Relative Humidity: 63%
Pressure (altimeter): 30.11 in. Hg (1019 hPa)
ob: KCNK 180055Z AUTO 33005KT 10SM CLR 09/03 A3011 RMK AO2 SLP201 T00940028
cycle: 1

Station Type Date Time Source
KCNK TAF UTC NOAA

Error!

Example: see airport list